Time;durP1;ratioP1;P1;durP2;ratioP2;P2;SDS_P1;SDS_P2;PMS_P1;PMS_P2;Temp;Humidity;BMP_temperature;BMP_pressure;BME280_temperature;BME280_humidity;BME280_pressure;Samples;Min_cycle;Max_cycle;Signal;HPM_P1;HPM_P2
2021/12/28 00:04:28;;;;;;;48.03;25.27;;;;;;;-0.10;100.00;99516.25;10315180;28;20120;-82
2021/12/28 00:09:29;;;;;;;51.97;24.17;;;;;;;1.39;100.00;99670.06;10314018;28;20037;-82
2021/12/28 00:14:35;;;;;;;50.87;25.07;;;;;;;1.03;100.00;99578.63;10329976;28;20038;-83
2021/12/28 00:19:36;;;;;;;46.70;23.93;;;;;;;-2.07;100.00;99047.13;10363690;28;20038;-83
2021/12/28 00:24:36;;;;;;;53.23;26.03;;;;;;;0.97;100.00;99575.78;10346734;28;20346;-83
2021/12/28 00:29:37;;;;;;;47.95;23.55;;;;;;;-1.89;100.00;99143.44;10354468;28;20040;-83
2021/12/28 00:34:37;;;;;;;52.50;25.70;;;;;;;1.03;100.00;99481.06;10355304;28;20084;-90
2021/12/28 00:39:38;;;;;;;56.55;25.38;;;;;;;-0.49;100.00;99309.13;10371486;28;20385;-90
2021/12/28 00:44:38;;;;;;;48.97;25.13;;;;;;;-0.95;100.00;99153.59;10355229;28;20116;-90
2021/12/28 00:49:39;;;;;;;57.10;26.90;;;;;;;-1.44;100.00;99146.09;10354937;28;20030;-90
2021/12/28 00:54:39;;;;;;;54.93;25.30;;;;;;;0.89;100.00;99462.25;10352654;28;20486;-90
2021/12/28 00:59:40;;;;;;;59.50;25.80;;;;;;;-0.92;100.00;99139.66;10313979;28;20061;-90
2021/12/28 01:04:40;;;;;;;50.47;26.38;;;;;;;-2.59;100.00;98851.53;10329113;28;20046;-91
2021/12/28 01:09:42;;;;;;;54.40;27.30;;;;;;;-1.18;100.00;99119.91;10322711;28;20045;-90
2021/12/28 01:14:42;;;;;;;58.43;26.43;;;;;;;-0.99;100.00;99079.44;10314400;28;20474;-90
2021/12/28 01:19:42;;;;;;;62.03;28.35;;;;;;;0.72;100.00;99383.44;10329456;28;20137;-91
2021/12/28 01:24:43;;;;;;;58.83;26.83;;;;;;;0.22;100.00;99405.25;10314174;28;20038;-91
2021/12/28 01:29:43;;;;;;;61.90;28.80;;;;;;;-0.68;100.00;99146.91;10329306;28;20030;-91
2021/12/28 01:34:44;;;;;;;62.33;29.35;;;;;;;-2.13;100.00;99014.78;10328854;28;20054;-92
2021/12/28 01:39:45;;;;;;;70.10;30.43;;;;;;;-0.43;100.00;99208.19;10345656;28;20042;-92
2021/12/28 01:44:45;;;;;;;72.40;30.47;;;;;;;0.39;100.00;99264.69;10312576;28;20502;-92
2021/12/28 01:49:46;;;;;;;71.97;30.77;;;;;;;-1.05;100.00;99119.00;10311463;28;20060;-92
2021/12/28 01:54:46;;;;;;;67.65;31.17;;;;;;;-2.88;100.00;98727.25;10313309;28;20030;-91
2021/12/28 01:59:51;;;;;;;75.90;34.17;;;;;;;-3.81;100.00;98593.41;10327928;28;20075;-91
2021/12/28 02:04:52;;;;;;;81.72;35.33;;;;;;;-0.12;100.00;99268.63;10329581;28;20034;-92
2021/12/28 02:09:52;;;;;;;81.67;36.47;;;;;;;1.24;100.00;99388.44;10311582;28;20030;-92
2021/12/28 02:14:52;;;;;;;89.47;36.57;;;;;;;-0.43;100.00;99133.31;10327087;28;20080;-84
2021/12/28 02:19:53;;;;;;;89.38;38.10;;;;;;;1.32;100.00;99398.13;10326015;28;20425;-84
2021/12/28 02:24:53;;;;;;;99.10;36.43;;;;;;;1.81;100.00;99445.81;10341692;28;20069;-91
2021/12/28 02:29:54;;;;;;;96.13;38.38;;;;;;;0.23;100.00;99193.09;10311145;28;20026;-92
2021/12/28 02:34:55;;;;;;;95.97;37.27;;;;;;;1.22;100.00;99377.00;10327175;28;20070;-92
2021/12/28 02:39:55;;;;;;;102.05;39.90;;;;;;;0.90;100.00;99369.06;10343010;28;20042;-84
2021/12/28 02:45:05;;;;;;;98.53;40.93;;;;;;;-1.25;100.00;98963.38;10325243;28;20405;-92
2021/12/28 02:50:07;;;;;;;117.10;40.80;;;;;;;1.49;100.00;99409.13;10342254;28;20034;-91
2021/12/28 02:55:09;;;;;;;134.63;44.37;;;;;;;-0.47;100.00;99078.03;10310643;28;20036;-92
2021/12/28 03:00:10;;;;;;;119.27;42.47;;;;;;;0.64;100.00;99283.56;10342011;28;20030;-92
2021/12/28 03:05:11;;;;;;;149.38;47.10;;;;;;;1.97;100.00;99425.31;10310947;28;20038;-91
2021/12/28 03:10:11;;;;;;;127.30;45.15;;;;;;;-0.38;100.00;99140.75;10325760;28;20037;-84
2021/12/28 03:15:13;;;;;;;131.43;44.42;;;;;;;0.18;100.00;99155.84;10308259;28;20085;-84
2021/12/28 03:20:14;;;;;;;162.10;47.67;;;;;;;1.50;100.00;99408.09;10336467;28;20132;-84
2021/12/28 03:25:15;;;;;;;122.17;42.77;;;;;;;-0.28;100.00;99037.47;10336714;28;20125;-84
2021/12/28 03:30:17;;;;;;;151.07;47.77;;;;;;;-1.10;100.00;99060.22;10323394;28;20041;-84
2021/12/28 03:35:18;;;;;;;144.77;48.47;;;;;;;0.92;100.00;99282.97;10316267;28;20192;-84
2021/12/28 03:40:18;;;;;;;129.27;47.92;;;;;;;2.25;100.00;99483.53;10315712;28;20237;-84
2021/12/28 03:45:19;;;;;;;157.53;47.30;;;;;;;-0.91;100.00;98954.88;10332041;28;20496;-84
2021/12/28 03:50:19;;;;;;;135.03;47.43;;;;;;;-0.27;100.00;99148.13;10315553;28;20025;-85
2021/12/28 03:55:21;;;;;;;182.60;49.63;;;;;;;0.51;100.00;99200.59;10349434;28;20065;-84
2021/12/28 04:00:22;;;;;;;136.27;48.37;;;;;;;1.63;100.00;99369.09;10387829;28;20045;-85
2021/12/28 04:05:23;;;;;;;143.95;47.63;;;;;;;-0.01;100.00;99086.63;10355195;28;20034;-85
2021/12/28 04:10:31;;;;;;;124.85;45.95;;;;;;;0.51;100.00;99164.59;10335114;28;20030;-85
2021/12/28 04:15:31;;;;;;;141.80;47.63;;;;;;;0.03;100.00;99206.84;10348399;28;20036;-84
2021/12/28 04:20:32;;;;;;;135.13;46.55;;;;;;;-3.05;100.00;98555.50;10314041;28;20068;-85
2021/12/28 04:25:33;;;;;;;141.02;48.95;;;;;;;-0.78;100.00;98962.84;10330713;28;20124;-85
2021/12/28 04:30:34;;;;;;;221.73;53.33;;;;;;;1.50;100.00;99345.72;10330596;28;20037;-85
2021/12/28 04:35:34;;;;;;;192.43;50.17;;;;;;;1.00;100.00;99195.09;10338005;28;20060;-85
2021/12/28 04:40:35;;;;;;;180.93;50.40;;;;;;;-1.47;100.00;98895.53;10402013;28;20054;-91
2021/12/28 04:45:37;;;;;;;345.08;63.13;;;;;;;0.87;100.00;99141.94;10371501;28;20034;-91
2021/12/28 04:50:39;;;;;;;342.27;60.38;;;;;;;0.51;100.00;99081.47;10388090;28;20034;-92
2021/12/28 04:55:42;;;;;;;308.70;57.27;;;;;;;0.22;100.00;99030.91;10372235;28;20079;-92
2021/12/28 05:00:43;;;;;;;210.18;54.00;;;;;;;0.30;100.00;99236.31;10371626;28;20489;-92
2021/12/28 05:05:48;;;;;;;196.98;53.80;;;;;;;-1.92;100.00;98752.84;10371242;28;20179;-92
2021/12/28 05:10:50;;;;;;;223.32;57.60;;;;;;;0.68;100.00;99216.22;10371824;28;20446;-91
2021/12/28 05:15:52;;;;;;;227.38;52.58;;;;;;;-1.65;100.00;98752.53;10369573;28;20030;-85
2021/12/28 05:20:52;;;;;;;260.13;53.53;;;;;;;0.68;100.00;99263.06;10385466;28;20049;-85
2021/12/28 05:25:53;;;;;;;168.57;49.17;;;;;;;-2.09;100.00;98821.88;10368243;28;20508;-85
2021/12/28 05:30:54;;;;;;;349.65;60.78;;;;;;;-1.25;100.00;98819.47;10404918;28;20115;-85
2021/12/28 05:35:54;;;;;;;347.23;60.57;;;;;;;-3.00;100.00;98613.22;10425376;28;20049;-85
2021/12/28 05:40:55;;;;;;;236.90;51.35;;;;;;;-1.04;100.00;98921.59;10378904;28;20119;-93
2021/12/28 05:45:55;;;;;;;290.27;55.33;;;;;;;-2.44;100.00;98639.16;10401837;28;20486;-93
2021/12/28 05:50:56;;;;;;;322.55;64.63;;;;;;;0.68;100.00;99140.38;10401442;28;20034;-91
2021/12/28 05:55:56;;;;;;;408.73;64.35;;;;;;;1.64;100.00;99271.22;10368808;28;20432;-84
2021/12/28 06:00:57;;;;;;;300.33;58.43;;;;;;;-0.69;100.00;98929.03;10369591;28;20033;-84
2021/12/28 06:05:57;;;;;;;218.97;44.53;;;;;;;-0.44;100.00;98828.03;10381300;28;20038;-86
2021/12/28 06:11:03;;;;;;;312.87;55.03;;;;;;;-2.07;100.00;98769.41;10439197;28;20120;-93
2021/12/28 06:16:04;;;;;;;295.87;53.83;;;;;;;-1.75;100.00;98854.75;10409464;28;20047;-92
2021/12/28 06:21:04;;;;;;;256.00;51.00;;;;;;;2.86;100.00;99579.31;10409729;28;20401;-91
2021/12/28 06:26:05;;;;;;;193.97;49.00;;;;;;;-0.20;100.00;99096.66;10408139;28;20166;-92
2021/12/28 06:31:05;;;;;;;270.07;53.90;;;;;;;0.82;100.00;99122.84;10418045;28;20025;-87
2021/12/28 06:36:06;;;;;;;277.07;57.77;;;;;;;-0.31;100.00;98957.63;10381897;28;20049;-86
2021/12/28 06:41:08;;;;;;;199.03;48.63;;;;;;;0.87;100.00;99076.94;10401546;28;20048;-86
2021/12/28 06:46:09;;;;;;;264.02;55.50;;;;;;;1.74;100.00;99270.63;10405181;28;20060;-86
2021/12/28 06:51:09;;;;;;;229.23;52.42;;;;;;;1.70;100.00;99210.59;10404775;28;20053;-87
2021/12/28 06:56:10;;;;;;;143.10;45.17;;;;;;;2.00;100.00;99263.88;10404662;28;20029;-86
2021/12/28 07:01:10;;;;;;;167.23;47.20;;;;;;;0.29;100.00;99096.59;10376731;28;20420;-86
2021/12/28 07:06:13;;;;;;;141.45;41.53;;;;;;;-0.11;100.00;98887.00;10398429;28;20033;-91
2021/12/28 07:11:14;;;;;;;145.37;42.57;;;;;;;1.25;100.00;99100.00;10367712;28;20037;-93
2021/12/28 07:16:14;;;;;;;151.77;42.73;;;;;;;-0.17;100.00;98870.88;10397931;28;20068;-92
2021/12/28 07:21:15;;;;;;;137.70;41.53;;;;;;;0.41;100.00;98913.38;10366389;28;20038;-92
2021/12/28 07:26:16;;;;;;;140.95;41.05;;;;;;;-1.29;100.00;98699.50;10382662;28;20397;-91
2021/12/28 07:31:16;;;;;;;133.40;40.35;;;;;;;1.11;100.00;99141.97;10399530;28;20076;-91
2021/12/28 07:36:17;;;;;;;123.97;39.15;;;;;;;1.16;100.00;99055.38;10381810;28;20497;-92
2021/12/28 07:41:18;;;;;;;141.75;38.20;;;;;;;1.73;100.00;99047.31;10366471;28;20058;-92
2021/12/28 07:46:18;;;;;;;150.20;40.38;;;;;;;-0.09;100.00;98781.28;10369706;28;20069;-86
2021/12/28 07:51:19;;;;;;;124.25;36.95;;;;;;;0.32;100.00;98877.72;10401821;28;20436;-86
2021/12/28 07:56:20;;;;;;;120.03;35.75;;;;;;;2.49;100.00;99245.34;10403607;28;20485;-86
2021/12/28 08:01:21;;;;;;;104.38;30.30;;;;;;;-0.03;100.00;98899.34;10378626;28;20116;-86
2021/12/28 08:06:21;;;;;;;75.57;25.02;;;;;;;-0.84;100.00;98623.34;10378341;28;20128;-86
2021/12/28 08:11:23;;;;;;;96.03;30.77;;;;;;;2.31;100.00;99204.78;10378620;28;20046;-86
2021/12/28 08:16:24;;;;;;;87.10;27.10;;;;;;;0.18;100.00;98731.00;10386211;28;20049;-86
2021/12/28 08:21:26;;;;;;;95.53;28.23;;;;;;;1.92;100.00;99049.84;10369289;28;20045;-86
2021/12/28 08:26:26;;;;;;;97.88;28.25;;;;;;;-0.27;100.00;98815.50;10368461;28;20505;-87
2021/12/28 08:31:27;;;;;;;68.82;24.10;;;;;;;0.93;100.00;98875.50;10385108;28;20112;-86
2021/12/28 08:36:27;;;;;;;73.20;24.45;;;;;;;0.69;100.00;98917.25;10366718;28;20042;-87
2021/12/28 08:41:28;;;;;;;82.22;24.20;;;;;;;3.02;100.00;99287.69;10383826;28;20041;-86
2021/12/28 08:46:29;;;;;;;81.57;24.67;;;;;;;-0.19;100.00;98791.84;10371956;28;20037;-92
2021/12/28 08:51:29;;;;;;;65.93;22.35;;;;;;;1.03;100.00;98796.25;10376862;28;20026;-92
2021/12/28 08:56:30;;;;;;;78.57;22.95;;;;;;;2.12;100.00;98995.94;10371641;28;20038;-93
2021/12/28 09:01:30;;;;;;;70.05;22.27;;;;;;;2.27;100.00;99057.00;10387703;28;20469;-90
2021/12/28 09:06:31;;;;;;;69.05;21.10;;;;;;;3.40;100.00;99279.91;10371305;28;20462;-92
2021/12/28 09:11:31;;;;;;;60.00;18.73;;;;;;;0.44;100.00;98696.31;10370512;28;20030;-86
2021/12/28 09:16:32;;;;;;;64.90;19.80;;;;;;;4.50;100.00;99345.53;10384783;28;20064;-93
2021/12/28 09:21:32;;;;;;;71.47;18.00;;;;;;;1.48;100.00;98827.16;10383851;28;20068;-87
2021/12/28 09:26:34;;;;;;;70.38;22.83;;;;;;;2.43;100.00;98958.41;10365965;28;20072;-89
2021/12/28 09:31:35;;;;;;;64.15;19.00;;;;;;;3.94;100.00;99145.97;10369892;28;20057;-92
2021/12/28 09:36:35;;;;;;;53.88;16.88;;;;;;;4.91;100.00;99302.44;10369845;28;20065;-91
2021/12/28 09:41:36;;;;;;;52.40;17.02;;;;;;;0.97;100.00;98613.00;10386106;28;20136;-87
2021/12/28 09:46:36;;;;;;;77.65;17.98;;;;;;;1.92;100.00;98828.16;10382274;28;20117;-87
2021/12/28 09:51:37;;;;;;;49.88;15.68;;;;;;;2.46;100.00;98870.16;10384049;28;20036;-92
2021/12/28 09:56:37;;;;;;;48.13;13.65;;;;;;;3.85;100.00;99082.97;10367695;28;20100;-91
2021/12/28 10:01:38;;;;;;;40.97;14.32;;;;;;;1.37;100.00;98650.75;10366449;28;20572;-90
2021/12/28 10:06:39;;;;;;;46.20;15.45;;;;;;;2.99;100.00;98921.16;10405269;28;20057;-90
2021/12/28 10:11:53;;;;;;;45.40;13.98;;;;;;;2.43;100.00;98730.28;10386195;28;20036;-91
2021/12/28 10:16:54;;;;;;;52.33;15.43;;;;;;;3.57;100.00;98956.91;10367915;28;20041;-90
2021/12/28 10:21:54;;;;;;;38.65;13.93;;;;;;;3.54;100.00;98910.38;10415064;28;20029;-91
2021/12/28 10:27:11;;;;;;;38.80;12.73;;;;;;;4.61;100.00;98982.09;10406414;28;20032;-87
2021/12/28 10:32:24;;;;;;;29.73;9.10;;;;;;;3.00;100.00;98805.91;10429911;28;20068;-87
2021/12/28 10:37:34;;;;;;;43.45;13.85;;;;;;;0.42;100.00;98378.22;10381169;28;20472;-87
2021/12/28 10:42:48;;;;;;;26.25;11.13;;;;;;;4.72;100.00;98982.19;10381519;28;20045;-87
2021/12/28 10:47:51;;;;;;;35.63;11.18;;;;;;;2.81;100.00;98691.31;10425559;28;20043;-91
2021/12/28 10:53:07;;;;;;;30.58;10.95;;;;;;;4.44;100.00;98935.09;10422414;28;20481;-91
2021/12/28 10:58:07;;;;;;;26.00;9.98;;;;;;;1.92;100.00;98642.78;10406451;28;20033;-85
2021/12/28 11:03:16;;;;;;;26.08;9.20;;;;;;;3.38;100.00;98708.09;10405231;28;20033;-87
2021/12/28 11:08:18;;;;;;;34.92;11.68;;;;;;;0.59;100.00;98252.53;10438268;28;20052;-91
2021/12/28 11:13:21;;;;;;;24.90;8.93;;;;;;;3.47;100.00;98936.94;10405869;28;20175;-87
2021/12/28 11:18:45;;;;;;;29.98;9.68;;;;;;;2.45;100.00;98527.16;10422354;28;20063;-92
2021/12/28 11:23:48;;;;;;;26.35;10.30;;;;;;;2.83;100.00;98628.53;10420635;28;20455;-87
2021/12/28 11:29:04;;;;;;;20.65;8.18;;;;;;;2.06;100.00;98518.38;10405658;28;20444;-90
2021/12/28 11:34:13;;;;;;;32.70;9.33;;;;;;;2.23;100.00;98508.22;10395994;28;20049;-90
2021/12/28 11:39:18;;;;;;;25.23;11.38;;;;;;;2.68;100.00;98590.38;10349656;28;20072;-87
2021/12/28 11:44:19;;;;;;;31.75;10.65;;;;;;;1.17;100.00;98379.41;10349468;28;20501;-87
2021/12/28 11:49:24;;;;;;;26.25;9.00;;;;;;;1.03;100.00;98348.38;10352877;28;20022;-92
2021/12/28 11:54:26;;;;;;;30.50;9.95;;;;;;;3.34;100.00;98677.88;10356785;28;20044;-89
2021/12/28 11:59:28;;;;;;;31.17;9.98;;;;;;;3.42;100.00;98737.22;10344213;28;20033;-91
2021/12/28 12:09:33;;;;;;;25.50;9.73;;;;;;;4.20;100.00;98735.84;10369589;28;20487;-90
2021/12/28 12:14:52;;;;;;;34.65;9.45;;;;;;;6.06;100.00;98959.81;10356850;28;20030;-86
2021/12/28 12:19:52;;;;;;;30.48;10.68;;;;;;;0.54;100.00;98095.50;10347330;28;20042;-92
2021/12/28 12:25:12;;;;;;;29.73;10.52;;;;;;;-0.43;100.00;97975.53;10367720;28;20635;-91
2021/12/28 12:30:24;;;;;;;25.85;8.85;;;;;;;3.37;100.00;98551.41;10327938;28;20065;-90
2021/12/28 12:41:56;;;;;;;33.33;11.25;;;;;;;5.29;100.00;98784.94;10215007;29;20090;-90
2021/12/28 12:47:53;;;;;;;;;;;;;;;;;;;;;
2021/12/28 12:54:16;;;;;;;26.77;11.52;;;;;;;6.11;100.00;98888.78;10222148;29;20047;-91
2021/12/28 13:13:46;;;;;;;;;;;;;;;;;;;;;
2021/12/28 13:19:38;;;;;;;122.82;49.58;;;;;;;4.75;100.00;98880.78;10184874;29;20122;-91
2021/12/28 13:24:57;;;;;;;28.38;13.23;;;;;;;2.03;100.00;98476.31;10178747;29;20385;-92
2021/12/28 13:30:30;;;;;;;22.67;13.10;;;;;;;4.08;100.00;98770.63;10286907;28;20414;-91
2021/12/28 13:36:09;;;;;;;28.02;13.82;;;;;;;6.00;100.00;98926.22;10321630;28;20056;-92
2021/12/28 13:42:03;;;;;;;;;;;;;;;;;;;;;
2021/12/28 13:47:39;;;;;;;;;;;;;;;;;;;;;
2021/12/28 13:58:22;;;;;;;30.30;15.40;;;;;;;3.39;100.00;98413.25;10388041;28;20052;-88
2021/12/28 14:03:22;;;;;;;30.30;16.63;;;;;;;2.55;100.00;98396.06;10368249;28;20474;-87
2021/12/28 14:08:45;;;;;;;;;;;;;;;;;;;;;
2021/12/28 14:14:16;;;;;;;38.15;19.52;;;;;;;4.41;100.00;98586.91;10379238;28;20041;-92
2021/12/28 14:19:17;;;;;;;33.55;18.05;;;;;;;0.16;100.00;97948.47;10351085;28;20549;-90
2021/12/28 14:24:26;;;;;;;32.10;17.52;;;;;;;-0.99;100.00;97908.16;10368098;28;20108;-94
2021/12/28 14:29:50;;;;;;;38.67;20.58;;;;;;;1.04;100.00;98247.88;10345352;28;20401;-93
2021/12/28 14:35:01;;;;;;;47.53;18.90;;;;;;;0.75;100.00;98218.34;10341337;28;20132;-95
2021/12/28 14:40:48;;;;;;;;;;;;;;;;;;;;;
2021/12/28 14:46:42;;;;;;;35.72;18.67;;;;;;;5.86;100.00;98827.56;10341867;28;20044;-90
2021/12/28 14:52:09;;;;;;;;;;;;;;;5.84;100.00;98846.13;10362850;28;20057;-95
2021/12/28 14:57:16;;;;;;;50.17;22.17;;;;;;;2.05;100.00;98343.03;10349368;28;19963;-95
2021/12/28 15:02:18;;;;;;;53.63;24.92;;;;;;;3.13;100.00;98635.31;10355409;28;20077;-89
2021/12/28 15:07:21;;;;;;;54.78;24.73;;;;;;;3.78;100.00;98567.91;10350956;28;20428;-92
2021/12/28 15:12:23;;;;;;;59.30;25.90;;;;;;;2.15;100.00;98376.53;10350433;28;20040;-94
2021/12/28 15:17:30;;;;;;;46.60;23.38;;;;;;;-0.17;100.00;98097.44;10354428;28;20029;-95
2021/12/28 15:22:30;;;;;;;49.97;21.85;;;;;;;2.73;100.00;98435.53;10346521;28;20072;-91
2021/12/28 15:52:46;;;;;;;221.55;84.65;;;;;;;5.34;100.00;98888.66;2452751;23;20061;-95
2021/12/28 16:04:09;;;;;;;;;;;;;;;;;;;;;
2021/12/28 16:09:42;;;;;;;53.63;21.75;;;;;;;0.06;100.00;98286.50;10106014;29;20037;-91
2021/12/28 16:14:48;;;;;;;;;;;;;;;5.18;100.00;98930.63;10097797;29;20089;-89
2021/12/28 16:19:48;;;;;;;49.45;20.08;;;;;;;-1.67;100.00;97927.25;10088813;29;19968;-91
2021/12/28 16:25:05;;;;;;;;;;;;;;;;;;;;;
2021/12/28 16:30:45;;;;;;;40.70;15.68;;;;;;;2.76;100.00;98750.22;10044037;29;20453;-90
2021/12/28 16:36:03;;;;;;;48.50;15.75;;;;;;;-2.86;100.00;97874.34;10033739;29;20037;-91
2021/12/28 16:41:27;;;;;;;42.05;14.45;;;;;;;-0.84;100.00;98293.78;10025918;29;20509;-88
2021/12/28 16:46:27;;;;;;;30.17;11.35;;;;;;;-0.41;100.00;98257.19;10034527;29;20040;-95
2021/12/28 16:51:33;;;;;;;31.75;10.82;;;;;;;-2.31;100.00;97879.06;10040781;29;20496;-88
2021/12/28 16:56:36;;;;;;;32.17;10.65;;;;;;;2.84;100.00;98714.41;10072003;29;20044;-95
2021/12/28 17:01:39;;;;;;;35.35;10.85;;;;;;;0.03;100.00;98533.19;10066519;29;20056;-88
2021/12/28 17:06:41;;;;;;;23.55;8.57;;;;;;;3.32;100.00;98856.81;10041253;29;20080;-89
2021/12/28 17:11:44;;;;;;;43.17;10.27;;;;;;;0.89;100.00;98668.44;10054886;29;20486;-95
2021/12/28 17:16:49;;;;;;;27.87;8.67;;;;;;;-0.97;100.00;98316.53;10055926;29;20037;-89
2021/12/28 17:21:59;;;;;;;21.87;8.27;;;;;;;1.11;100.00;98513.22;10054253;29;20120;-96
2021/12/28 17:27:00;;;;;;;37.50;9.82;;;;;;;1.77;100.00;98757.38;10040104;29;20033;-88
2021/12/28 17:32:10;;;;;;;28.73;8.85;;;;;;;3.37;100.00;99028.25;10055586;29;20053;-88
2021/12/28 17:37:20;;;;;;;21.35;8.85;;;;;;;1.89;100.00;98719.28;10052614;29;20041;-88
2021/12/28 17:42:26;;;;;;;31.38;10.38;;;;;;;2.01;100.00;98728.13;10039867;29;20048;-96
2021/12/28 17:47:36;;;;;;;27.60;9.90;;;;;;;0.92;100.00;98569.59;10041619;29;20072;-96
2021/12/28 17:52:37;;;;;;;34.65;10.85;;;;;;;1.57;100.00;98790.41;10042731;29;20467;-94
2021/12/28 17:57:39;;;;;;;31.40;9.82;;;;;;;-1.83;100.00;98260.59;10039003;29;20055;-87
2021/12/28 18:02:41;;;;;;;24.85;10.98;;;;;;;-0.31;100.00;98524.16;10068099;29;20060;-95
2021/12/28 18:07:44;;;;;;;24.92;11.75;;;;;;;0.20;100.00;98634.16;10051389;29;20499;-88
2021/12/28 18:12:47;;;;;;;23.50;12.05;;;;;;;-0.20;100.00;98461.13;10039111;29;20418;-95
2021/12/28 18:17:50;;;;;;;34.40;12.73;;;;;;;0.48;100.00;98627.09;10036414;29;20037;-94
2021/12/28 18:22:53;;;;;;;54.00;12.75;;;;;;;2.92;100.00;98955.88;10038436;29;20030;-94
2021/12/28 18:27:57;;;;;;;35.95;13.65;;;;;;;-0.33;100.00;98629.03;10083599;29;20105;-88
2021/12/28 18:33:14;;;;;;;45.88;14.20;;;;;;;-1.70;100.00;98361.19;10038654;29;20063;-88
2021/12/28 18:38:17;;;;;;;42.72;15.52;;;;;;;0.62;100.00;98662.81;10051452;29;20037;-88
2021/12/28 18:43:20;;;;;;;45.92;16.00;;;;;;;4.02;100.00;99331.53;10050976;29;20466;-88
2021/12/28 18:48:20;;;;;;;62.05;16.73;;;;;;;2.00;100.00;98854.03;10035510;29;20068;-88
2021/12/28 18:53:23;;;;;;;50.55;16.92;;;;;;;1.22;100.00;98889.06;10036195;29;20068;-94
2021/12/28 18:58:39;;;;;;;;;;;;;;;;;;;;;
2021/12/28 19:03:51;;;;;;;80.32;19.63;;;;;;;0.06;100.00;98751.84;10033912;29;20046;-95
2021/12/28 19:08:51;;;;;;;45.58;14.95;;;;;;;-0.09;100.00;98662.25;10028991;29;20045;-95
2021/12/28 19:13:57;;;;;;;30.48;14.23;;;;;;;-2.39;100.00;98396.78;10028065;29;20034;-88
2021/12/28 19:19:15;;;;;;;55.83;17.58;;;;;;;-2.48;100.00;98287.72;10043629;29;20041;-88
2021/12/28 19:24:16;;;;;;;69.95;15.98;;;;;;;-0.09;100.00;98573.00;10027374;29;20490;-94
2021/12/28 19:29:16;;;;;;;45.90;16.70;;;;;;;0.25;100.00;98759.81;10028349;29;20034;-95
2021/12/28 19:34:20;;;;;;;55.53;17.08;;;;;;;2.54;100.00;99116.94;10028359;29;20053;-95
2021/12/28 19:39:22;;;;;;;75.40;18.27;;;;;;;0.02;100.00;98688.44;10029114;29;20483;-95
2021/12/28 19:44:26;;;;;;;49.22;17.85;;;;;;;3.51;100.00;99275.44;10027726;29;20042;-88
2021/12/28 19:49:27;;;;;;;64.72;18.58;;;;;;;3.06;100.00;99167.56;10041547;29;20398;-92
2021/12/28 19:54:28;;;;;;;54.75;18.45;;;;;;;-0.24;100.00;98752.81;10043141;29;20044;-94
2021/12/28 19:59:30;;;;;;;64.18;17.85;;;;;;;2.87;100.00;99216.72;10043759;29;20044;-94
2021/12/28 20:04:32;;;;;;;49.72;16.38;;;;;;;-0.74;100.00;98704.66;10028957;29;20431;-95
2021/12/28 20:09:32;;;;;;;65.45;18.40;;;;;;;0.37;100.00;98801.19;10045284;29;20077;-87
2021/12/28 20:14:36;;;;;;;63.47;17.77;;;;;;;-2.10;100.00;98281.03;10047907;29;20154;-96
2021/12/28 20:19:37;;;;;;;65.18;17.08;;;;;;;0.57;100.00;98814.34;10034882;29;20048;-93
2021/12/28 20:24:38;;;;;;;57.60;15.10;;;;;;;0.51;100.00;98900.06;10049463;29;20097;-95
2021/12/28 20:29:40;;;;;;;55.53;17.83;;;;;;;0.12;100.00;98896.19;10050357;29;20031;-95
2021/12/28 20:34:40;;;;;;;54.63;17.23;;;;;;;4.25;100.00;99458.53;10049850;29;20076;-95
2021/12/28 20:39:41;;;;;;;59.20;18.38;;;;;;;-0.79;100.00;98807.19;10031444;29;20494;-88
2021/12/28 20:44:42;;;;;;;73.78;17.77;;;;;;;-1.16;100.00;98712.78;10060837;29;20034;-88
2021/12/28 20:49:45;;;;;;;55.05;19.73;;;;;;;2.28;100.00;99137.41;10065311;29;20038;-95
2021/12/28 20:54:45;;;;;;;62.08;18.15;;;;;;;1.45;100.00;99170.16;10011296;29;20415;-95
2021/12/28 20:59:46;;;;;;;66.25;18.17;;;;;;;-0.93;100.00;98619.34;10064314;29;20073;-95
2021/12/28 21:04:49;;;;;;;63.33;17.25;;;;;;;-1.19;100.00;98702.44;10064160;29;20451;-94
2021/12/28 21:09:52;;;;;;;65.72;18.83;;;;;;;0.55;100.00;98919.38;10060345;29;20054;-87
2021/12/28 21:14:53;;;;;;;52.83;19.63;;;;;;;1.02;100.00;99005.19;10032285;29;20068;-88
2021/12/28 21:19:53;;;;;;;73.97;21.52;;;;;;;-0.67;100.00;98726.94;10042657;29;20125;-88
2021/12/28 21:24:59;;;;;;;65.13;21.45;;;;;;;-1.49;100.00;98681.72;10041573;29;20033;-88
2021/12/28 21:30:06;;;;;;;82.30;21.55;;;;;;;2.36;100.00;99337.97;10028271;29;20095;-88
2021/12/28 21:35:09;;;;;;;;;;;;;;;4.09;100.00;99472.16;10041745;29;20124;-88
2021/12/28 21:40:12;;;;;;;70.43;20.98;;;;;;;1.60;100.00;99275.44;10025562;29;19974;-88
2021/12/28 21:45:16;;;;;;;69.97;21.05;;;;;;;2.23;100.00;99301.03;10052830;29;20046;-88
2021/12/28 21:50:17;;;;;;;58.67;19.88;;;;;;;1.02;100.00;99054.78;10059135;29;20471;-96
2021/12/28 21:55:17;;;;;;;55.50;21.35;;;;;;;1.03;100.00;99151.25;10029995;29;20128;-87
2021/12/28 22:00:30;;;;;;;69.25;21.75;;;;;;;-1.90;100.00;98726.47;10028066;29;20566;-87
2021/12/28 22:05:35;;;;;;;53.63;18.65;;;;;;;3.11;100.00;99338.94;10032518;29;20136;-90
2021/12/28 22:10:44;;;;;;;51.13;20.02;;;;;;;-3.65;100.00;98432.34;10045176;29;20078;-89
2021/12/28 22:15:47;;;;;;;54.97;22.55;;;;;;;-0.65;100.00;98972.66;10028703;29;20078;-88
2021/12/28 22:20:48;;;;;;;58.67;22.05;;;;;;;1.27;100.00;99236.16;10029466;29;20037;-88
2021/12/28 22:25:56;;;;;;;50.42;21.70;;;;;;;1.30;100.00;99270.94;10028609;29;20475;-88
2021/12/28 22:30:58;;;;;;;52.25;20.92;;;;;;;0.22;100.00;99080.47;10043631;29;20067;-88
2021/12/28 22:36:01;;;;;;;51.75;21.13;;;;;;;0.28;100.00;99092.25;10012143;29;20491;-88
2021/12/28 22:41:10;;;;;;;54.13;18.93;;;;;;;2.16;100.00;99376.34;10027432;29;20174;-88
2021/12/28 22:46:12;;;;;;;70.68;25.80;;;;;;;4.10;100.00;99727.94;10012810;29;20144;-88
2021/12/28 22:51:12;;;;;;;67.85;25.27;;;;;;;-2.54;100.00;98676.56;10026455;29;20136;-88
2021/12/28 22:56:15;;;;;;;55.53;24.45;;;;;;;-2.22;100.00;98762.72;10026940;29;20101;-88
2021/12/28 23:01:20;;;;;;;112.53;24.60;;;;;;;-0.04;100.00;99060.84;10031167;29;20051;-88
2021/12/28 23:06:20;;;;;;;75.10;23.20;;;;;;;-2.36;100.00;98614.59;10049261;29;20040;-88
2021/12/28 23:11:24;;;;;;;51.20;21.95;;;;;;;0.47;100.00;99125.50;10052007;29;20036;-95
2021/12/28 23:16:25;;;;;;;71.03;26.33;;;;;;;-0.86;100.00;99111.75;10051933;29;20053;-95
2021/12/28 23:21:25;;;;;;;78.38;27.90;;;;;;;-0.09;100.00;99208.66;10051384;29;20088;-95
2021/12/28 23:26:31;;;;;;;83.85;29.42;;;;;;;-2.06;100.00;98821.44;10051297;29;20128;-95
2021/12/28 23:31:55;;;;;;;85.73;34.30;;;;;;;3.83;100.00;99657.66;10051190;29;20094;-95
2021/12/28 23:37:01;;;;;;;86.13;30.80;;;;;;;1.68;100.00;99374.66;10053426;29;20037;-95
2021/12/28 23:42:08;;;;;;;82.30;28.23;;;;;;;0.27;100.00;99074.34;10051797;29;20072;-95
2021/12/28 23:47:11;;;;;;;129.60;29.27;;;;;;;1.49;100.00;99372.03;10058624;29;20037;-88
2021/12/28 23:52:14;;;;;;;100.97;31.52;;;;;;;4.12;100.00;99938.28;10027047;29;20403;-88
2021/12/28 23:57:17;;;;;;;131.18;36.30;;;;;;;1.83;100.00;99425.78;10032483;29;20120;-88
